Aérodrome :
LOGIN :

S'inscrire | Disclaimer

   EN    FR    IT 

 










Légende :    VFR   VFR Marginal   IFR   IFR Intensif   IFR Très Intensif
Visi : 
Plafond : 
>= 8 km
>= 3000ft
5 à 8 km
1000 à 3000 ft
1500m à 5 km
500 à 1000 ft
800 à 1500m
200 à 500 ft
< 800m
< 200 ft
Symboles :   Orages  Brouillard  Fortes neiges  Fortes précipitations  Vent > 20 kt
SIGMETs :   Divers  Orages  Givrage  Turbulence  Onde Orograph.  Cendres Volcan.






- Altitude de l'aérodrome : 26 ft
- Code IATA : BIA


LFKB - Bastia

DERNIER METAR :
  • 110400Z AUTO 00000KT 4600 RA BR FEW019/// BKN088/// OVC100/// ///CB 16/15 Q1011 TEMPO 14015G25KT TSRA BKN010 SCT030CB

METARs EXPIRÉS :
  • 110330Z AUTO 30005KT 4700 -RA BR FEW003/// BKN015/// BKN070/// ///CB 16/15 Q1012 TEMPO 14015G25KT TSRA BKN010 SCT030CB
  • 110300Z AUTO VRB02KT 3500 RA BR BKN012/// BKN044/// BKN062/// ///CB 16/15 Q1013 TEMPO 14015G25KT TSRA
  • 110230Z AUTO 16003KT 070V220 3700 +RA BR FEW020/// SCT034/// BKN048/// ///CB 16/16 Q1014 TEMPO TSRA BKN008
  • 110200Z AUTO VRB02KT 6000 RA FEW017/// SCT070/// BKN098/// ///CB 16/16 Q1013 TEMPO 3000 TSRA BKN008
  • 110130Z AUTO 06003KT 330V140 9999 -RA FEW084/// OVC110/// ///CB 17/16 Q1011 TEMPO 3000 TSRA BKN008

TAF TAF LFKB
Valide du 11 à 03h jusqu'au 12 à 03h UTC


110200Z 1103/1203 14008KT 9999 BKN025 BKN050 TX20/1112Z TN15/1104Z
TEMPO 1103/1112 14015G25KT 3000 TSRA BKN010 SCT030CB
TEMPO 1116/1120 4000 TSRA SCT015 FEW030CB
ATIS : +33 4 95 59 19 40



MET'MAP, la Météo Aéronautique d'un coup d'oeil ! - Copyright ORBIFLY Décembre 2007 - Disclaimer

ORBIFLY MET'MAP TEAM :

Programmation & Développement : Alexandra Zaïnal
Sur une idée originale de : Baudouin d'Aumeries
Assistance à la programmation : Marc-Olivier Méhu
Soutien technique & logistique : Manuel Goepfert

Contact : metmap@orbifly.com




SOURCES & CREDITS :

   NOAA